createdAt,value
2023-02-24T00:02:05.738Z,96857.03
2023-02-24T00:04:39.505Z,96847.69
2023-02-24T00:07:07.129Z,96850.59
2023-02-24T00:09:33.627Z,96842.72
2023-02-24T00:12:08.814Z,96837.25
2023-02-24T00:14:37.388Z,96832.94
2023-02-24T00:17:04.166Z,96835.50
2023-02-24T00:19:32.630Z,96835.50
2023-02-24T00:22:00.124Z,96820.66
2023-02-24T00:24:27.274Z,96832.72
2023-02-24T00:26:55.455Z,96827.69
2023-02-24T00:29:22.456Z,96831.72
2023-02-24T00:31:59.906Z,96826.69
2023-02-24T00:34:28.091Z,96815.34
2023-02-24T00:36:54.458Z,96819.34
2023-02-24T00:39:28.482Z,96824.41
2023-02-24T00:42:04.402Z,96822.59
2023-02-24T00:44:35.986Z,96824.56
2023-02-24T00:47:04.847Z,96810.44
2023-02-24T00:49:32.146Z,96816.91
2023-02-24T00:51:59.496Z,96797.44
2023-02-24T00:54:28.215Z,96812.41
2023-02-24T00:56:56.047Z,96801.75
2023-02-24T00:59:24.052Z,96807.22
2023-02-24T01:01:51.199Z,96808.47
2023-02-24T01:04:18.990Z,96787.41
2023-02-24T01:06:48.895Z,96793.72
2023-02-24T01:09:18.548Z,96785.66
2023-02-24T01:12:06.461Z,96777.22
2023-02-24T01:14:34.818Z,96783.41
2023-02-24T01:17:01.822Z,96769.72
2023-02-24T01:19:30.469Z,96781.44
2023-02-24T01:21:57.934Z,96777.16
2023-02-24T01:24:25.379Z,96778.69
2023-02-24T01:26:52.172Z,96783.56
2023-02-24T01:29:18.843Z,96772.78
2023-02-24T01:31:47.296Z,96756.69
2023-02-24T01:34:14.954Z,96775.50
2023-02-24T01:36:44.935Z,96760.78
2023-02-24T01:39:13.361Z,96769.00
2023-02-24T01:41:47.104Z,96769.88
2023-02-24T01:44:14.147Z,96768.25
2023-02-24T01:46:43.727Z,96759.66
2023-02-24T01:49:20.732Z,96750.13
2023-02-24T01:51:54.696Z,96756.97
2023-02-24T01:54:25.723Z,96752.84
2023-02-24T01:56:53.366Z,96736.75
2023-02-24T01:59:23.521Z,96748.72
2023-02-24T02:01:54.441Z,96745.78
2023-02-24T02:04:42.604Z,96746.81
2023-02-24T02:07:12.694Z,96742.03
2023-02-24T02:09:43.136Z,96745.91
2023-02-24T02:12:10.705Z,96721.97
2023-02-24T02:14:43.211Z,96739.09
2023-02-24T02:17:37.219Z,96740.19
2023-02-24T02:20:28.028Z,96738.75
2023-02-24T02:23:08.086Z,96730.88
2023-02-24T02:26:05.829Z,96730.47
2023-02-24T02:29:09.538Z,96728.09
2023-02-24T02:32:08.468Z,96731.13
2023-02-24T02:34:58.424Z,96723.41
2023-02-24T02:37:41.385Z,96725.31
2023-02-24T02:40:21.060Z,96712.97
2023-02-24T02:42:51.229Z,96714.78
2023-02-24T02:45:29.022Z,96709.16
2023-02-24T02:48:06.682Z,96719.00
2023-02-24T02:50:43.252Z,96714.41
2023-02-24T02:53:31.524Z,96716.53
2023-02-24T02:56:06.929Z,96706.28
2023-02-24T02:58:37.709Z,96700.72
2023-02-24T03:01:07.184Z,96706.03
2023-02-24T03:03:46.528Z,96689.97
2023-02-24T03:06:22.277Z,96688.16
2023-02-24T03:09:11.302Z,96706.69
2023-02-24T03:11:39.426Z,96697.50
2023-02-24T03:14:12.049Z,96683.72
2023-02-24T03:16:46.077Z,96698.69
2023-02-24T03:19:17.584Z,96680.25
2023-02-24T03:21:48.120Z,96689.47
2023-02-24T03:24:17.856Z,96670.56
2023-02-24T03:26:52.022Z,96674.47
2023-02-24T03:29:37.144Z,96683.63
2023-02-24T03:32:21.836Z,96689.16
2023-02-24T03:34:55.726Z,96687.16
2023-02-24T03:37:27.911Z,96683.09
2023-02-24T03:39:58.060Z,96679.41
2023-02-24T03:42:30.791Z,96681.06
2023-02-24T03:45:00.003Z,96673.88
2023-02-24T03:47:26.778Z,96666.88
2023-02-24T03:49:53.292Z,96663.53
2023-02-24T03:52:37.410Z,96671.94
2023-02-24T03:55:18.730Z,96661.00
2023-02-24T03:58:09.189Z,96657.84
2023-02-24T04:00:41.327Z,96662.00
2023-02-24T04:03:16.651Z,96666.00
2023-02-24T04:05:50.722Z,96653.00
2023-02-24T04:08:17.999Z,96655.16
2023-02-24T04:11:05.630Z,96648.00
2023-02-24T04:13:48.268Z,96643.13
2023-02-24T04:16:29.035Z,96642.94
2023-02-24T04:19:06.936Z,96638.53
2023-02-24T04:21:35.509Z,96631.06
2023-02-24T04:24:08.612Z,96632.13
2023-02-24T04:26:40.332Z,96633.69
2023-02-24T04:29:08.885Z,96618.59
2023-02-24T04:31:36.738Z,96612.06
2023-02-24T04:34:03.188Z,96602.50
2023-02-24T04:36:29.804Z,96603.50
2023-02-24T04:38:56.230Z,96599.66
2023-02-24T04:41:23.110Z,96618.88
2023-02-24T04:43:53.138Z,96606.94
2023-02-24T04:46:20.044Z,96590.31
2023-02-24T04:48:46.662Z,96583.19
2023-02-24T04:51:13.691Z,96581.72
2023-02-24T04:53:40.623Z,96584.16
2023-02-24T04:56:08.837Z,96586.94
2023-02-24T04:58:40.118Z,96578.94
2023-02-24T05:01:10.683Z,96586.66
2023-02-24T05:03:42.024Z,96571.28
2023-02-24T05:06:14.570Z,96589.50
2023-02-24T05:08:40.936Z,96584.66
2023-02-24T05:11:08.335Z,96577.78
2023-02-24T05:13:37.509Z,96563.72
2023-02-24T05:16:07.884Z,96581.59
2023-02-24T05:18:37.917Z,96583.59
2023-02-24T05:21:29.801Z,96571.75
2023-02-24T05:23:59.017Z,96583.59
2023-02-24T05:26:26.225Z,96570.59
2023-02-24T05:28:56.309Z,96579.50
2023-02-24T05:31:28.909Z,96563.00
2023-02-24T05:34:01.394Z,96566.41
2023-02-24T05:36:30.794Z,96559.53
2023-02-24T05:39:07.588Z,96570.22
2023-02-24T05:41:38.539Z,96564.59
2023-02-24T05:44:08.590Z,96561.41
2023-02-24T05:46:38.360Z,96570.13
2023-02-24T05:49:11.011Z,96552.81
2023-02-24T05:51:39.326Z,96548.75
2023-02-24T05:54:08.850Z,96547.97
2023-02-24T05:56:38.514Z,96541.00
2023-02-24T05:59:09.001Z,96541.59
2023-02-24T06:01:39.785Z,96543.25
2023-02-24T06:04:08.091Z,96537.59
2023-02-24T06:06:39.961Z,96530.31
2023-02-24T06:09:13.421Z,96521.44
2023-02-24T06:11:41.884Z,96537.53
2023-02-24T06:14:09.991Z,96534.81
2023-02-24T06:16:39.847Z,96543.72
2023-02-24T06:19:08.083Z,96529.00
2023-02-24T06:21:35.769Z,96536.44
2023-02-24T06:24:02.364Z,96524.69
2023-02-24T06:26:29.831Z,96535.88
2023-02-24T06:28:58.709Z,96532.91
2023-02-24T06:31:26.777Z,96546.28
2023-02-24T06:33:53.758Z,96538.34
2023-02-24T06:36:21.087Z,96533.75
2023-02-24T06:38:49.352Z,96545.31
2023-02-24T06:41:15.914Z,96536.13
2023-02-24T06:43:46.083Z,96534.53
2023-02-24T06:46:14.338Z,96526.97
2023-02-24T06:48:41.631Z,96539.19
2023-02-24T06:51:15.959Z,96536.88
2023-02-24T06:53:43.597Z,96536.88
2023-02-24T06:56:14.972Z,96527.72
2023-02-24T06:58:46.061Z,96537.38
2023-02-24T07:01:13.779Z,96526.72
2023-02-24T07:03:40.465Z,96534.53
2023-02-24T07:06:20.241Z,96526.19
2023-02-24T07:08:47.860Z,96533.53
2023-02-24T07:11:17.538Z,96520.66
2023-02-24T07:13:44.872Z,96522.50
2023-02-24T07:16:12.064Z,96530.41
2023-02-24T07:18:41.608Z,96517.63
2023-02-24T07:21:11.503Z,96523.91
2023-02-24T07:23:40.345Z,96525.97
2023-02-24T07:26:12.570Z,96518.31
2023-02-24T07:28:40.919Z,96510.69
2023-02-24T07:31:10.456Z,96513.16
2023-02-24T07:33:37.657Z,96509.16
2023-02-24T07:36:14.063Z,96502.94
2023-02-24T07:38:45.022Z,96505.22
2023-02-24T07:41:15.239Z,96492.81
2023-02-24T07:43:42.277Z,96501.31
2023-02-24T07:46:11.745Z,96503.53
2023-02-24T07:48:41.257Z,96496.75
2023-02-24T07:51:14.579Z,96494.75
2023-02-24T07:53:41.996Z,96489.31
2023-02-24T07:56:17.741Z,96494.75
2023-02-24T07:58:45.355Z,96499.75
2023-02-24T08:01:27.989Z,96490.28
2023-02-24T08:04:03.319Z,96482.25
2023-02-24T08:06:38.067Z,96472.63
2023-02-24T08:09:44.468Z,96485.22
2023-02-24T08:12:22.396Z,96478.53
2023-02-24T08:14:53.381Z,96479.13
2023-02-24T08:17:23.515Z,96474.81
2023-02-24T08:20:12.045Z,96466.13
2023-02-24T08:22:51.938Z,96460.41
2023-02-24T08:25:35.691Z,96452.66
2023-02-24T08:28:09.270Z,96452.47
2023-02-24T08:30:39.313Z,96446.91
2023-02-24T08:33:11.408Z,96449.31
2023-02-24T08:35:44.291Z,96443.75
2023-02-24T08:38:16.823Z,96433.75
2023-02-24T08:40:54.369Z,96451.41
2023-02-24T08:43:32.563Z,96458.09
2023-02-24T08:46:18.452Z,96455.50
2023-02-24T08:48:51.061Z,96443.47
2023-02-24T08:51:24.509Z,96447.78
2023-02-24T08:53:53.167Z,96445.00
2023-02-24T08:56:24.892Z,96444.91
2023-02-24T08:58:57.312Z,96453.97
2023-02-24T09:01:34.906Z,96443.47
2023-02-24T09:04:10.564Z,96441.00
2023-02-24T09:06:44.800Z,96439.00
2023-02-24T09:09:17.735Z,96426.56
2023-02-24T09:11:46.864Z,96429.59
2023-02-24T09:14:26.062Z,96422.06
2023-02-24T09:17:11.125Z,96422.44
2023-02-24T09:19:41.005Z,96423.94
2023-02-24T09:22:21.094Z,96409.50
2023-02-24T09:24:50.927Z,96403.19
2023-02-24T09:27:17.526Z,96412.97
2023-02-24T09:29:49.277Z,96407.34
2023-02-24T09:32:16.006Z,96401.13
2023-02-24T09:34:46.150Z,96397.78
2023-02-24T09:37:26.648Z,96402.00
2023-02-24T09:39:56.832Z,96374.59
2023-02-24T09:42:34.045Z,96391.69
2023-02-24T09:45:32.784Z,96393.69
2023-02-24T09:48:21.113Z,96374.97
2023-02-24T09:51:03.753Z,96389.31
2023-02-24T09:53:41.341Z,96369.53
2023-02-24T09:56:16.034Z,96369.06
2023-02-24T09:59:14.193Z,96357.03
2023-02-24T10:01:48.006Z,96367.09
2023-02-24T10:04:22.805Z,96376.81
2023-02-24T10:06:55.189Z,96355.09
2023-02-24T10:09:27.481Z,96363.06
2023-02-24T10:12:04.196Z,96354.25
2023-02-24T10:14:52.945Z,96359.94
2023-02-24T10:17:24.028Z,96343.97
2023-02-24T10:19:56.417Z,96340.81
2023-02-24T10:22:52.288Z,96338.47
2023-02-24T10:25:21.642Z,96336.66
2023-02-24T10:27:58.233Z,96332.94
2023-02-24T10:30:40.726Z,96334.88
2023-02-24T10:33:27.882Z,96331.28
2023-02-24T10:36:09.050Z,96314.06
2023-02-24T10:38:45.485Z,96317.28
2023-02-24T10:41:14.029Z,96318.53
2023-02-24T10:43:47.190Z,96304.41
2023-02-24T10:46:41.637Z,96311.03
2023-02-24T10:49:11.734Z,96314.09
2023-02-24T10:51:43.878Z,96318.53
2023-02-24T10:54:42.198Z,96295.22
2023-02-24T10:57:37.363Z,96288.50
2023-02-24T11:00:35.128Z,96296.16
2023-02-24T11:03:09.266Z,96282.78
2023-02-24T11:06:04.189Z,96282.75
2023-02-24T11:08:38.723Z,96278.66
2023-02-24T11:11:25.800Z,96286.78
2023-02-24T11:14:12.342Z,96270.53
2023-02-24T11:17:09.855Z,96265.09
2023-02-24T11:19:49.391Z,96257.97
2023-02-24T11:22:20.294Z,96260.22
2023-02-24T11:24:48.367Z,96255.22
2023-02-24T11:27:18.663Z,96253.84
2023-02-24T11:30:23.692Z,96240.31
2023-02-24T11:33:03.292Z,96225.25
2023-02-24T11:35:57.907Z,96226.47
2023-02-24T11:38:42.369Z,96223.13
2023-02-24T11:41:21.752Z,96227.25
2023-02-24T11:44:15.658Z,96208.97
2023-02-24T11:46:50.005Z,96216.59
2023-02-24T11:49:25.704Z,96203.22
2023-02-24T11:51:54.208Z,96196.06
2023-02-24T11:54:23.293Z,96193.78
2023-02-24T11:56:54.727Z,96189.84
2023-02-24T11:59:36.317Z,96193.31
2023-02-24T12:02:38.533Z,96184.78
2023-02-24T12:05:37.470Z,96178.72
2023-02-24T12:08:13.390Z,96153.47
2023-02-24T12:10:48.628Z,96161.38
2023-02-24T12:13:14.933Z,96154.81
2023-02-24T12:16:03.084Z,96150.13
2023-02-24T12:18:40.819Z,96139.91
2023-02-24T12:21:36.697Z,96143.41
2023-02-24T12:24:08.531Z,96135.81
2023-02-24T12:27:18.337Z,96126.78
2023-02-24T12:29:55.587Z,96121.63
2023-02-24T12:32:53.322Z,96115.84
2023-02-24T12:35:44.404Z,96110.25
2023-02-24T12:38:40.754Z,96116.03
2023-02-24T12:41:33.599Z,96120.03
2023-02-24T12:44:16.182Z,96118.34
2023-02-24T12:46:46.607Z,96114.25
2023-02-24T12:49:12.928Z,96115.63
2023-02-24T12:52:12.146Z,96116.25
2023-02-24T12:55:08.197Z,96102.59
2023-02-24T12:57:55.996Z,96110.94
2023-02-24T13:00:28.258Z,96098.47
2023-02-24T13:03:10.098Z,96093.00
2023-02-24T13:05:58.137Z,96094.06
2023-02-24T13:08:39.058Z,96092.69
2023-02-24T13:11:16.304Z,96084.34
2023-02-24T13:13:57.860Z,96088.44
2023-02-24T13:16:33.054Z,96079.16
2023-02-24T13:19:25.617Z,96068.53
2023-02-24T13:22:13.036Z,96069.72
2023-02-24T13:24:42.642Z,96062.28
2023-02-24T13:27:32.067Z,96070.22
2023-02-24T13:30:01.839Z,96053.03
2023-02-24T13:32:34.435Z,96054.25
2023-02-24T13:35:17.922Z,96048.00
2023-02-24T13:37:47.133Z,96059.25
2023-02-24T13:40:19.199Z,96056.41
2023-02-24T13:43:00.591Z,96049.09
2023-02-24T13:45:34.693Z,96045.13
2023-02-24T13:48:38.889Z,96041.19
2023-02-24T13:51:17.235Z,96039.06
2023-02-24T13:54:02.642Z,96035.72
2023-02-24T13:56:44.994Z,96031.63
2023-02-24T13:59:37.352Z,96023.88
2023-02-24T14:02:14.258Z,96029.34
2023-02-24T14:04:52.465Z,96002.44
2023-02-24T14:07:25.255Z,96014.00
2023-02-24T14:09:59.455Z,96030.25
2023-02-24T14:12:29.602Z,96022.81
2023-02-24T14:14:56.956Z,96009.00
2023-02-24T14:17:28.861Z,95999.13
2023-02-24T14:20:08.635Z,96002.91
2023-02-24T14:22:37.410Z,96004.44
2023-02-24T14:25:09.057Z,96005.22
2023-02-24T14:27:37.419Z,96004.28
2023-02-24T14:30:05.584Z,96008.69
2023-02-24T14:32:33.401Z,95997.63
2023-02-24T14:35:00.007Z,95987.41
2023-02-24T14:37:30.565Z,95979.22
2023-02-24T14:39:59.485Z,95988.19
2023-02-24T14:42:26.857Z,95988.47
2023-02-24T14:44:58.537Z,95969.22
2023-02-24T14:47:28.721Z,95970.44
2023-02-24T14:49:59.283Z,95970.41
2023-02-24T14:52:42.987Z,95983.63
2023-02-24T14:55:30.770Z,95975.13
2023-02-24T14:58:09.359Z,95973.47
2023-02-24T15:00:46.783Z,95974.50
2023-02-24T15:03:29.387Z,95956.59
2023-02-24T15:05:59.535Z,95969.22
2023-02-24T15:08:47.018Z,95963.13
2023-02-24T15:11:17.177Z,95951.13
2023-02-24T15:13:48.827Z,95943.41
2023-02-24T15:16:21.364Z,95945.94
2023-02-24T15:19:01.806Z,95944.75
2023-02-24T15:21:31.789Z,95943.09
2023-02-24T15:24:19.112Z,95927.47
2023-02-24T15:26:55.072Z,95930.81
2023-02-24T15:29:26.652Z,95922.47
2023-02-24T15:31:59.875Z,95931.72
2023-02-24T15:34:31.484Z,95928.97
2023-02-24T15:37:02.983Z,95928.22
2023-02-24T15:39:31.615Z,95928.03
2023-02-24T15:42:15.946Z,95929.72
2023-02-24T15:44:53.749Z,95936.09
2023-02-24T15:47:32.639Z,95932.44
2023-02-24T15:49:59.208Z,95928.63
2023-02-24T15:52:29.609Z,95930.16
2023-02-24T15:54:57.916Z,95920.91
2023-02-24T15:57:25.042Z,95925.16
2023-02-24T15:59:51.896Z,95924.72
2023-02-24T16:02:20.929Z,95917.72
2023-02-24T16:04:48.837Z,95931.22
2023-02-24T16:07:24.909Z,95913.63
2023-02-24T16:09:54.296Z,95921.47
2023-02-24T16:12:36.924Z,95923.56
2023-02-24T16:15:06.973Z,95932.81
2023-02-24T16:17:36.275Z,95932.16
2023-02-24T16:20:03.416Z,95932.69
2023-02-24T16:22:29.795Z,95916.25
2023-02-24T16:24:56.200Z,95931.53
2023-02-24T16:27:25.921Z,95918.28
2023-02-24T16:29:53.063Z,95932.75
2023-02-24T16:32:22.130Z,95932.34
2023-02-24T16:34:49.574Z,95928.66
2023-02-24T16:37:22.291Z,95935.44
2023-02-24T16:39:49.440Z,95935.25
2023-02-24T16:42:17.139Z,95932.44
2023-02-24T16:44:43.664Z,95938.75
2023-02-24T16:47:17.097Z,95924.78
2023-02-24T16:49:43.472Z,95934.13
2023-02-24T16:52:12.784Z,95935.25
2023-02-24T16:54:39.195Z,95921.47
2023-02-24T16:57:05.561Z,95924.81
2023-02-24T16:59:32.203Z,95938.31
2023-02-24T17:01:59.542Z,95938.22
2023-02-24T17:04:26.034Z,95946.22
2023-02-24T17:06:52.418Z,95933.00
2023-02-24T17:09:18.858Z,95922.72
2023-02-24T17:11:45.350Z,95937.66
2023-02-24T17:14:21.301Z,95932.06
2023-02-24T17:16:47.856Z,95918.66
2023-02-24T17:19:14.613Z,95930.81
2023-02-24T17:21:45.254Z,95930.34
2023-02-24T17:24:16.988Z,95915.97
2023-02-24T17:26:43.624Z,95924.72
2023-02-24T17:29:10.867Z,95927.47
2023-02-24T17:31:37.496Z,95916.25
2023-02-24T17:34:06.282Z,95916.63
2023-02-24T17:36:32.766Z,95920.03
2023-02-24T17:38:59.169Z,95921.84
2023-02-24T17:41:25.916Z,95925.81
2023-02-24T17:43:53.330Z,95937.81
2023-02-24T17:46:20.669Z,95929.50
2023-02-24T17:48:47.370Z,95937.03
2023-02-24T17:51:15.422Z,95940.34
2023-02-24T17:53:41.908Z,95928.53
2023-02-24T17:56:09.241Z,95939.88
2023-02-24T17:58:36.434Z,95939.38
2023-02-24T18:01:03.811Z,95940.91
2023-02-24T18:03:31.016Z,95940.75
2023-02-24T18:06:09.340Z,95943.56
2023-02-24T18:08:36.697Z,95941.22
2023-02-24T18:11:04.501Z,95939.22
2023-02-24T18:13:32.393Z,95956.06
2023-02-24T18:15:58.831Z,95953.75
2023-02-24T18:18:26.900Z,95950.63
2023-02-24T18:20:53.490Z,95949.31
2023-02-24T18:23:20.527Z,95947.94
2023-02-24T18:25:46.873Z,95926.81
2023-02-24T18:28:13.290Z,95923.06
2023-02-24T18:30:39.980Z,95938.50
2023-02-24T18:33:06.548Z,95936.44
2023-02-24T18:35:33.061Z,95926.44
2023-02-24T18:37:59.414Z,95935.97
2023-02-24T18:40:28.095Z,95930.47
2023-02-24T18:42:55.374Z,95935.59
2023-02-24T18:45:23.141Z,95943.59
2023-02-24T18:47:53.067Z,95932.09
2023-02-24T18:50:20.600Z,95943.34
2023-02-24T18:52:47.026Z,95937.81
2023-02-24T18:55:13.385Z,95940.94
2023-02-24T18:57:40.298Z,95934.00
2023-02-24T19:00:07.228Z,95945.41
2023-02-24T19:02:33.598Z,95937.91
2023-02-24T19:04:59.984Z,95948.31
2023-02-24T19:07:26.337Z,95939.66
2023-02-24T19:09:52.751Z,95936.06
2023-02-24T19:12:20.327Z,95932.72
2023-02-24T19:14:51.287Z,95933.59
2023-02-24T19:17:17.772Z,95936.91
2023-02-24T19:19:44.222Z,95935.28
2023-02-24T19:22:10.599Z,95921.97
2023-02-24T19:24:37.095Z,95936.22
2023-02-24T19:27:03.476Z,95914.66
2023-02-24T19:29:30.071Z,95921.03
2023-02-24T19:31:57.980Z,95923.88
2023-02-24T19:34:24.568Z,95935.28
2023-02-24T19:36:50.917Z,95933.88
2023-02-24T19:39:17.945Z,95936.13
2023-02-24T19:41:44.971Z,95936.63
2023-02-24T19:44:11.686Z,95936.44
2023-02-24T19:46:38.899Z,95929.75
2023-02-24T19:49:05.518Z,95924.34
2023-02-24T19:51:32.303Z,95921.97
2023-02-24T19:54:01.787Z,95921.47
2023-02-24T19:56:31.164Z,95932.53
2023-02-24T19:58:59.111Z,95912.06
2023-02-24T20:01:28.450Z,95907.31
2023-02-24T20:03:57.678Z,95902.84
2023-02-24T20:06:32.174Z,95927.84
2023-02-24T20:08:59.355Z,95921.31
2023-02-24T20:11:26.185Z,95919.41
2023-02-24T20:13:53.251Z,95920.81
2023-02-24T20:16:23.582Z,95919.13
2023-02-24T20:18:50.336Z,95917.22
2023-02-24T20:21:16.831Z,95923.22
2023-02-24T20:23:43.551Z,95895.25
2023-02-24T20:26:13.964Z,95905.03
2023-02-24T20:28:40.437Z,95922.44
2023-02-24T20:31:12.508Z,95910.84
2023-02-24T20:33:40.829Z,95928.44
2023-02-24T20:36:09.223Z,95930.53
2023-02-24T20:38:35.980Z,95928.34
2023-02-24T20:41:02.539Z,95927.47
2023-02-24T20:43:28.921Z,95925.66
2023-02-24T20:45:55.788Z,95921.41
2023-02-24T20:48:22.364Z,95923.31
2023-02-24T20:50:48.923Z,95925.38
2023-02-24T20:53:15.761Z,95926.78
2023-02-24T20:55:42.235Z,95906.25
2023-02-24T20:58:08.700Z,95912.06
2023-02-24T21:00:35.101Z,95917.09
2023-02-24T21:03:01.727Z,95914.06
2023-02-24T21:05:28.107Z,95906.75
2023-02-24T21:07:54.455Z,95917.31
2023-02-24T21:10:22.846Z,95917.13
2023-02-24T21:12:52.393Z,95919.88
2023-02-24T21:15:19.666Z,95914.28
2023-02-24T21:17:46.235Z,95914.94
2023-02-24T21:20:13.511Z,95913.88
2023-02-24T21:22:40.945Z,95893.53
2023-02-24T21:25:10.586Z,95914.84
2023-02-24T21:27:38.226Z,95906.00
2023-02-24T21:30:07.096Z,95919.22
2023-02-24T21:32:33.771Z,95929.38
2023-02-24T21:35:00.269Z,95911.81
2023-02-24T21:37:26.619Z,95924.25
2023-02-24T21:39:52.967Z,95907.97
2023-02-24T21:42:19.351Z,95907.34
2023-02-24T21:44:45.713Z,95930.81
2023-02-24T21:47:12.161Z,95924.25
2023-02-24T21:49:38.527Z,95933.94
2023-02-24T21:52:05.418Z,95937.75
2023-02-24T21:54:32.599Z,95922.16
2023-02-24T21:56:58.987Z,95918.91
2023-02-24T21:59:25.335Z,95958.28
2023-02-24T22:01:51.883Z,95955.81
2023-02-24T22:04:19.161Z,95964.25
2023-02-24T22:06:45.786Z,95954.84
2023-02-24T22:09:20.274Z,95960.16
2023-02-24T22:11:47.791Z,95949.31
2023-02-24T22:14:15.263Z,95960.16
2023-02-24T22:16:42.827Z,95938.28
2023-02-24T22:19:10.190Z,95937.22
2023-02-24T22:21:37.082Z,95957.66
2023-02-24T22:24:03.930Z,95966.41
2023-02-24T22:26:32.071Z,95977.63
2023-02-24T22:28:59.422Z,95972.31
2023-02-24T22:31:29.552Z,95970.22
2023-02-24T22:33:56.732Z,95976.38
2023-02-24T22:36:28.438Z,95982.56
2023-02-24T22:38:56.594Z,95970.66
2023-02-24T22:41:26.434Z,95985.88
2023-02-24T22:43:53.928Z,95974.38
2023-02-24T22:46:24.028Z,95968.69
2023-02-24T22:48:50.668Z,95973.25
2023-02-24T22:51:17.888Z,95970.78
2023-02-24T22:53:46.835Z,95985.63
2023-02-24T22:56:16.561Z,95972.19
2023-02-24T22:58:43.411Z,95994.00
2023-02-24T23:01:11.847Z,95993.78
2023-02-24T23:03:39.986Z,96010.72
2023-02-24T23:06:14.326Z,96005.47
2023-02-24T23:08:42.732Z,96000.13
2023-02-24T23:11:15.494Z,96002.13
2023-02-24T23:13:44.663Z,95995.19
2023-02-24T23:16:14.323Z,96006.00
2023-02-24T23:18:41.057Z,96000.66
2023-02-24T23:21:09.961Z,96000.59
2023-02-24T23:23:37.303Z,95993.53
2023-02-24T23:26:04.700Z,95994.38
2023-02-24T23:28:31.119Z,96014.25
2023-02-24T23:30:57.738Z,96012.34
2023-02-24T23:33:24.328Z,96009.00
2023-02-24T23:35:50.687Z,96018.00
2023-02-24T23:38:17.329Z,96007.19
2023-02-24T23:40:50.553Z,96021.00
2023-02-24T23:43:17.606Z,96012.47
2023-02-24T23:45:44.354Z,96028.91
2023-02-24T23:48:13.573Z,96019.97
2023-02-24T23:50:41.745Z,96004.94
2023-02-24T23:53:09.136Z,96018.84
2023-02-24T23:55:35.822Z,96014.97
2023-02-24T23:58:03.567Z,96019.06
